Time;durP1;ratioP1;P1;durP2;ratioP2;P2;SDS_P1;SDS_P2;PMS_P1;PMS_P2;Temp;Humidity;BMP_temperature;BMP_pressure;BME280_temperature;BME280_humidity;BME280_pressure;Samples;Min_cycle;Max_cycle;Signal;HPM_P1;HPM_P2
2022/08/20 00:01:40;;;;;;;;;;;;;;;;;;5041056;28;1894;-71
2022/08/20 00:04:06;;;;;;;;;;;;;;;;;;5041181;28;736;-71
2022/08/20 00:06:32;;;;;;;;;;;;;;;;;;5040633;28;1192;-71
2022/08/20 00:08:58;;;;;;;;;;;;;;;;;;5041000;28;942;-71
2022/08/20 00:11:24;;;;;;;;;;;;;;;;;;5040857;28;1024;-71
2022/08/20 00:13:51;;;;;;;;;;;;;;;;;;5041095;28;787;-71
2022/08/20 00:16:17;;;;;;;;;;;;;;;;;;5022700;28;1445;-72
2022/08/20 00:18:43;;;;;;;;;;;;;;;;;;5041045;28;1005;-72
2022/08/20 00:21:10;;;;;;;;;;;;;;;;;;5022983;28;1902;-72
2022/08/20 00:23:36;;;;;;;;;;;;;;;;;;5040951;28;874;-72
2022/08/20 00:26:02;;;;;;;;;;;;;;;;;;5040461;28;1176;-72
2022/08/20 00:28:27;;;;;;;;;;;;;;;;;;5040997;28;890;-72
2022/08/20 00:30:52;;;;;;;;;;;;;;;;;;5026583;28;1588;-72
2022/08/20 00:33:21;;;;;;;;;;;;;;;;;;5044268;28;803;-72
2022/08/20 00:35:48;;;;;;;;;;;;;;;;;;5026122;28;1507;-72
2022/08/20 00:38:14;;;;;;;;;;;;;;;;;;5044201;28;859;-72
2022/08/20 00:40:42;;;;;;;;;;;;;;;;;;5044255;28;1906;-72
2022/08/20 00:43:23;;;;;;;;;;;;;;;;;;5044081;28;862;-72
2022/08/20 00:45:49;;;;;;;;;;;;;;;;;;5026381;28;1362;-72
2022/08/20 00:48:15;;;;;;;;;;;;;;;;;;5044007;28;823;-72
2022/08/20 00:50:40;;;;;;;;;;;;;;;;;;5044016;28;795;-72
2022/08/20 00:53:07;;;;;;;;;;;;;;;;;;5043941;28;949;-72
2022/08/20 00:55:32;;;;;;;;;;;;;;;;;;5043740;28;1267;-72
2022/08/20 00:58:00;;;;;;;;;;;;;;;;;;5043892;28;1048;-72
2022/08/20 01:00:27;;;;;;;;;;;;;;;;;;5043772;28;1934;-72
2022/08/20 01:02:53;;;;;;;;;;;;;;;;;;5043819;28;894;-69
2022/08/20 01:05:22;;;;;;;;;;;;;;;;;;5043391;28;1160;-71
2022/08/20 01:07:48;;;;;;;;;;;;;;;;;;5043821;28;847;-71
2022/08/20 01:10:15;;;;;;;;;;;;;;;;;;5043718;28;878;-71
2022/08/20 01:12:43;;;;;;;;;;;;;;;;;;5043967;28;771;-71
2022/08/20 01:15:12;;;;;;;;;;;;;;;;;;5043300;28;1161;-71
2022/08/20 01:17:40;;;;;;;;;;;;;;;;;;5043700;28;1047;-71
2022/08/20 01:20:14;;;;;;;;;;;;;;;;;;5043399;28;1945;-71
2022/08/20 01:25:37;;;;;;;;;;;;;;;;;;5043230;28;1208;-71
2022/08/20 01:28:02;;;;;;;;;;;;;;;;;;5043527;28;1009;-71
2022/08/20 01:30:29;;;;;;;;;;;;;;;;;;5043365;28;826;-71
2022/08/20 01:32:54;;;;;;;;;;;;;;;;;;5043479;28;807;-72
2022/08/20 01:35:20;;;;;;;;;;;;;;;;;;5042867;28;1196;-71
2022/08/20 01:37:45;;;;;;;;;;;;;;;;;;5043712;28;851;-72
2022/08/20 01:40:12;;;;;;;;;;;;;;;;;;5042429;28;1969;-71
2022/08/20 01:42:41;;;;;;;;;;;;;;;;;;5042987;28;985;-71
2022/08/20 01:45:07;;;;;;;;;;;;;;;;;;5042887;28;1188;-71
2022/08/20 01:47:33;;;;;;;;;;;;;;;;;;5043439;28;814;-71
2022/08/20 01:49:59;;;;;;;;;;;;;;;;;;5043128;28;1004;-71
2022/08/20 01:52:25;;;;;;;;;;;;;;;;;;5043178;28;791;-71
2022/08/20 01:54:51;;;;;;;;;;;;;;;;;;5042900;28;1228;-72
2022/08/20 01:57:17;;;;;;;;;;;;;;;;;;5043049;28;873;-71
2022/08/20 01:59:43;;;;;;;;;;;;;;;;;;5043071;28;873;-72
2022/08/20 02:02:09;;;;;;;;;;;;;;;;;;5042830;28;1893;-72
2022/08/20 02:04:35;;;;;;;;;;;;;;;;;;5042636;28;1275;-71
2022/08/20 02:07:03;;;;;;;;;;;;;;;;;;5042819;28;802;-72
2022/08/20 02:09:30;;;;;;;;;;;;;;;;;;5043241;28;1030;-71
2022/08/20 02:11:56;;;;;;;;;;;;;;;;;;5042697;28;1361;-71
2022/08/20 02:14:21;;;;;;;;;;;;;;;;;;5042809;28;1252;-72
2022/08/20 02:16:47;;;;;;;;;;;;;;;;;;5041822;28;803;-72
2022/08/20 02:19:18;;;;;;;;;;;;;;;;;;5042770;28;819;-72
2022/08/20 02:21:45;;;;;;;;;;;;;;;;;;5042440;28;1953;-72
2022/08/20 02:24:10;;;;;;;;;;;;;;;;;;5042891;28;906;-71
2022/08/20 02:26:36;;;;;;;;;;;;;;;;;;5042277;28;1306;-73
2022/08/20 02:29:03;;;;;;;;;;;;;;;;;;5042455;28;803;-73
2022/08/20 02:31:28;;;;;;;;;;;;;;;;;;5042623;28;870;-73
2022/08/20 02:33:53;;;;;;;;;;;;;;;;;;5042532;28;779;-73
2022/08/20 02:36:19;;;;;;;;;;;;;;;;;;5042191;28;1176;-73
2022/08/20 02:38:45;;;;;;;;;;;;;;;;;;5042275;28;918;-73
2022/08/20 02:41:11;;;;;;;;;;;;;;;;;;5042213;28;1961;-73
2022/08/20 02:43:36;;;;;;;;;;;;;;;;;;5042219;28;881;-73
2022/08/20 02:46:02;;;;;;;;;;;;;;;;;;5041935;28;1334;-73
2022/08/20 02:48:27;;;;;;;;;;;;;;;;;;5042121;28;885;-73
2022/08/20 02:50:55;;;;;;;;;;;;;;;;;;5042137;28;990;-73
2022/08/20 02:53:21;;;;;;;;;;;;;;;;;;5041979;28;839;-72
2022/08/20 02:55:46;;;;;;;;;;;;;;;;;;5041852;28;1174;-72
2022/08/20 02:58:12;;;;;;;;;;;;;;;;;;5042079;28;858;-72
2022/08/20 03:00:38;;;;;;;;;;;;;;;;;;5024100;28;1894;-72
2022/08/20 03:03:03;;;;;;;;;;;;;;;;;;5042041;28;938;-72
2022/08/20 03:05:28;;;;;;;;;;;;;;;;;;5041674;28;1244;-72
2022/08/20 03:07:55;;;;;;;;;;;;;;;;;;5042234;28;823;-72
2022/08/20 03:10:21;;;;;;;;;;;;;;;;;;5041777;28;854;-72
2022/08/20 03:12:46;;;;;;;;;;;;;;;;;;5041889;28;941;-72
2022/08/20 03:15:11;;;;;;;;;;;;;;;;;;5041388;28;1196;-72
2022/08/20 03:17:37;;;;;;;;;;;;;;;;;;5024025;28;1239;-72
2022/08/20 03:20:06;;;;;;;;;;;;;;;;;;5041469;28;1890;-72
2022/08/20 03:22:32;;;;;;;;;;;;;;;;;;5041724;28;816;-72
2022/08/20 03:24:57;;;;;;;;;;;;;;;;;;5041321;28;1267;-72
2022/08/20 03:27:22;;;;;;;;;;;;;;;;;;5041709;28;922;-72
2022/08/20 03:29:47;;;;;;;;;;;;;;;;;;5041513;28;866;-72
2022/08/20 03:32:13;;;;;;;;;;;;;;;;;;5041426;28;998;-72
2022/08/20 03:34:38;;;;;;;;;;;;;;;;;;5041374;28;1144;-72
2022/08/20 03:37:03;;;;;;;;;;;;;;;;;;5041410;28;996;-72
2022/08/20 03:39:28;;;;;;;;;;;;;;;;;;5041502;28;912;-71
2022/08/20 03:41:54;;;;;;;;;;;;;;;;;;5041473;28;1973;-72
2022/08/20 03:44:20;;;;;;;;;;;;;;;;;;5041427;28;1188;-72
2022/08/20 03:46:45;;;;;;;;;;;;;;;;;;5041049;28;874;-72
2022/08/20 03:49:10;;;;;;;;;;;;;;;;;;5041568;28;881;-72
2022/08/20 03:51:35;;;;;;;;;;;;;;;;;;5041058;28;875;-72
2022/08/20 03:54:00;;;;;;;;;;;;;;;;;;5041362;28;888;-72
2022/08/20 03:56:26;;;;;;;;;;;;;;;;;;5041064;28;1256;-72
2022/08/20 03:58:51;;;;;;;;;;;;;;;;;;5041551;28;779;-71
2022/08/20 04:01:17;;;;;;;;;;;;;;;;;;5023142;28;1886;-72
2022/08/20 04:03:44;;;;;;;;;;;;;;;;;;5022727;28;1251;-72
2022/08/20 04:06:09;;;;;;;;;;;;;;;;;;5040914;28;1267;-71
2022/08/20 04:08:34;;;;;;;;;;;;;;;;;;5040982;28;871;-71
2022/08/20 04:10:59;;;;;;;;;;;;;;;;;;5041193;28;850;-71
2022/08/20 04:13:26;;;;;;;;;;;;;;;;;;5040964;28;910;-71
2022/08/20 04:15:54;;;;;;;;;;;;;;;;;;5040721;28;1202;-71
2022/08/20 04:18:21;;;;;;;;;;;;;;;;;;5040845;28;854;-71
2022/08/20 04:20:46;;;;;;;;;;;;;;;;;;5040960;28;1890;-71
2022/08/20 04:23:13;;;;;;;;;;;;;;;;;;5040766;28;986;-71
2022/08/20 04:25:42;;;;;;;;;;;;;;;;;;5040762;28;1172;-72
2022/08/20 04:28:09;;;;;;;;;;;;;;;;;;5040749;28;977;-71
2022/08/20 04:30:34;;;;;;;;;;;;;;;;;;5040824;28;1013;-71
2022/08/20 04:33:00;;;;;;;;;;;;;;;;;;5040756;28;858;-71
2022/08/20 04:35:25;;;;;;;;;;;;;;;;;;5040623;28;1185;-71
2022/08/20 04:38:16;;;;;;;;;;;;;;;;;;5040946;28;961;-71
2022/08/20 04:41:02;;;;;;;;;;;;;;;;;;5037567;28;1898;-71
2022/08/20 04:43:29;;;;;;;;;;;;;;;;;;5040478;28;1011;-71
2022/08/20 04:45:56;;;;;;;;;;;;;;;;;;5040197;28;1176;-71
2022/08/20 04:48:22;;;;;;;;;;;;;;;;;;5040743;28;811;-71
2022/08/20 04:50:48;;;;;;;;;;;;;;;;;;5040424;28;823;-71
2022/08/20 04:53:16;;;;;;;;;;;;;;;;;;5040650;28;871;-71
2022/08/20 04:55:41;;;;;;;;;;;;;;;;;;5040084;28;1188;-71
2022/08/20 04:58:18;;;;;;;;;;;;;;;;;;5022831;28;2222;-71
2022/08/20 05:00:47;;;;;;;;;;;;;;;;;;5040127;28;1977;-71
2022/08/20 05:03:13;;;;;;;;;;;;;;;;;;5022725;28;1276;-71
2022/08/20 05:05:38;;;;;;;;;;;;;;;;;;5022218;28;1188;-71
2022/08/20 05:08:03;;;;;;;;;;;;;;;;;;5040408;28;992;-71
2022/08/20 05:10:29;;;;;;;;;;;;;;;;;;5040190;28;787;-71
2022/08/20 05:12:54;;;;;;;;;;;;;;;;;;5040364;28;862;-72
2022/08/20 05:15:19;;;;;;;;;;;;;;;;;;5039856;28;1153;-70
2022/08/20 05:17:45;;;;;;;;;;;;;;;;;;5043676;28;986;-70
2022/08/20 05:20:11;;;;;;;;;;;;;;;;;;5043582;28;1963;-70
2022/08/20 05:22:37;;;;;;;;;;;;;;;;;;5043525;28;866;-70
2022/08/20 05:25:02;;;;;;;;;;;;;;;;;;5025424;28;1564;-70
2022/08/20 05:27:28;;;;;;;;;;;;;;;;;;5043491;28;885;-70
2022/08/20 05:29:59;;;;;;;;;;;;;;;;;;5043565;28;794;-71
2022/08/20 05:32:24;;;;;;;;;;;;;;;;;;5043173;28;834;-70
2022/08/20 05:34:49;;;;;;;;;;;;;;;;;;5043300;28;1228;-70
2022/08/20 05:37:15;;;;;;;;;;;;;;;;;;5025450;28;1279;-71
2022/08/20 05:39:41;;;;;;;;;;;;;;;;;;5043356;28;858;-71
2022/08/20 05:42:06;;;;;;;;;;;;;;;;;;5042512;28;2190;-71
2022/08/20 05:44:32;;;;;;;;;;;;;;;;;;5042974;28;1266;-70
2022/08/20 05:46:57;;;;;;;;;;;;;;;;;;5043071;28;862;-71
2022/08/20 05:49:22;;;;;;;;;;;;;;;;;;5043215;28;937;-71
2022/08/20 05:51:48;;;;;;;;;;;;;;;;;;5043382;28;997;-72
2022/08/20 05:54:13;;;;;;;;;;;;;;;;;;5042607;28;1241;-72
2022/08/20 05:56:39;;;;;;;;;;;;;;;;;;5043002;28;945;-72
2022/08/20 05:59:05;;;;;;;;;;;;;;;;;;5042874;28;909;-72
2022/08/20 06:01:31;;;;;;;;;;;;;;;;;;5042924;28;1879;-72
2022/08/20 06:06:41;;;;;;;;;;;;;;;;;;5043150;28;672;-71
2022/08/20 06:09:06;;;;;;;;;;;;;;;;;;5042789;28;894;-69
2022/08/20 06:11:31;;;;;;;;;;;;;;;;;;5042766;28;978;-70
2022/08/20 06:13:57;;;;;;;;;;;;;;;;;;5042861;28;826;-70
2022/08/20 06:16:22;;;;;;;;;;;;;;;;;;5042707;28;1232;-72
2022/08/20 06:18:48;;;;;;;;;;;;;;;;;;5042618;28;870;-72
2022/08/20 06:21:13;;;;;;;;;;;;;;;;;;5042657;28;1898;-70
2022/08/20 06:23:38;;;;;;;;;;;;;;;;;;5042513;28;867;-70
2022/08/20 06:26:07;;;;;;;;;;;;;;;;;;5042505;28;1257;-70
2022/08/20 06:28:33;;;;;;;;;;;;;;;;;;5042111;28;803;-73
2022/08/20 06:30:59;;;;;;;;;;;;;;;;;;5042608;28;783;-72
2022/08/20 06:33:24;;;;;;;;;;;;;;;;;;5042620;28;870;-73
2022/08/20 06:35:49;;;;;;;;;;;;;;;;;;5042042;28;1215;-73
2022/08/20 06:38:14;;;;;;;;;;;;;;;;;;5042405;28;887;-71
2022/08/20 06:40:40;;;;;;;;;;;;;;;;;;5042153;28;1890;-71
2022/08/20 06:43:07;;;;;;;;;;;;;;;;;;5042215;28;871;-70
2022/08/20 06:45:33;;;;;;;;;;;;;;;;;;5041911;28;1184;-73
2022/08/20 06:48:00;;;;;;;;;;;;;;;;;;5042306;28;846;-71
2022/08/20 06:50:27;;;;;;;;;;;;;;;;;;5042116;28;830;-70
2022/08/20 06:52:52;;;;;;;;;;;;;;;;;;5042141;28;926;-71
2022/08/20 06:55:17;;;;;;;;;;;;;;;;;;5023852;28;1365;-71
2022/08/20 06:57:43;;;;;;;;;;;;;;;;;;5042126;28;854;-71
2022/08/20 07:00:12;;;;;;;;;;;;;;;;;;5041858;28;1953;-71
2022/08/20 07:02:37;;;;;;;;;;;;;;;;;;5042063;28;885;-71
2022/08/20 07:05:04;;;;;;;;;;;;;;;;;;5042141;28;1181;-71
2022/08/20 07:07:29;;;;;;;;;;;;;;;;;;5042125;28;870;-71
2022/08/20 07:10:07;;;;;;;;;;;;;;;;;;5041894;28;1001;-71
2022/08/20 07:12:35;;;;;;;;;;;;;;;;;;5041780;28;960;-71
2022/08/20 07:15:01;;;;;;;;;;;;;;;;;;5041722;28;1243;-72
2022/08/20 07:17:26;;;;;;;;;;;;;;;;;;5041775;28;854;-71
2022/08/20 07:19:51;;;;;;;;;;;;;;;;;;5041930;28;985;-71
2022/08/20 07:22:16;;;;;;;;;;;;;;;;;;5044094;28;1901;-71
2022/08/20 07:24:43;;;;;;;;;;;;;;;;;;5047257;28;1267;-72
2022/08/20 07:27:08;;;;;;;;;;;;;;;;;;5048055;28;854;-72
2022/08/20 07:35:02;;;;;;;;;;;;;;;;;;5048031;28;1212;-72
2022/08/20 07:37:27;;;;;;;;;;;;;;;;;;5048014;28;822;-72
2022/08/20 07:39:52;;;;;;;;;;;;;;;;;;5046903;28;881;-72
2022/08/20 07:42:17;;;;;;;;;;;;;;;;;;5047188;28;1969;-72
2022/08/20 07:44:43;;;;;;;;;;;;;;;;;;5028293;28;1471;-72
2022/08/20 07:47:08;;;;;;;;;;;;;;;;;;5042977;28;1111;-72
2022/08/20 07:49:37;;;;;;;;;;;;;;;;;;5041222;28;882;-72
2022/08/20 07:52:03;;;;;;;;;;;;;;;;;;5041399;28;838;-72
2022/08/20 07:54:28;;;;;;;;;;;;;;;;;;5040974;28;1157;-72
2022/08/20 07:56:54;;;;;;;;;;;;;;;;;;5023443;28;1070;-72
2022/08/20 07:59:20;;;;;;;;;;;;;;;;;;5041152;28;814;-72
2022/08/20 08:01:45;;;;;;;;;;;;;;;;;;5041116;28;1898;-72
2022/08/20 08:04:11;;;;;;;;;;;;;;;;;;5041056;28;854;-72
2022/08/20 08:06:36;;;;;;;;;;;;;;;;;;5040929;28;1236;-72
2022/08/20 08:09:05;;;;;;;;;;;;;;;;;;5041026;28;826;-72
2022/08/20 08:11:32;;;;;;;;;;;;;;;;;;5041069;28;985;-72
2022/08/20 08:13:57;;;;;;;;;;;;;;;;;;5041281;28;834;-72
2022/08/20 08:16:22;;;;;;;;;;;;;;;;;;5040605;28;1200;-72
2022/08/20 08:18:50;;;;;;;;;;;;;;;;;;5041076;28;803;-72
2022/08/20 08:21:17;;;;;;;;;;;;;;;;;;5040877;28;1898;-72
2022/08/20 08:23:43;;;;;;;;;;;;;;;;;;5041039;28;799;-72
2022/08/20 08:26:13;;;;;;;;;;;;;;;;;;5040388;28;1196;-72
2022/08/20 08:28:38;;;;;;;;;;;;;;;;;;5040985;28;834;-72
2022/08/20 08:31:03;;;;;;;;;;;;;;;;;;5040597;28;815;-72
2022/08/20 08:33:31;;;;;;;;;;;;;;;;;;5040891;28;941;-72
2022/08/20 08:36:04;;;;;;;;;;;;;;;;;;5040159;28;1184;-72
2022/08/20 08:38:30;;;;;;;;;;;;;;;;;;5040559;28;1015;-72
2022/08/20 08:40:57;;;;;;;;;;;;;;;;;;5040354;28;1894;-72
2022/08/20 08:43:24;;;;;;;;;;;;;;;;;;5040682;28;1064;-72
2022/08/20 08:45:53;;;;;;;;;;;;;;;;;;5040086;28;1204;-72
2022/08/20 08:48:20;;;;;;;;;;;;;;;;;;5040667;28;810;-72
2022/08/20 08:50:48;;;;;;;;;;;;;;;;;;5042280;28;823;-72
2022/08/20 08:53:21;;;;;;;;;;;;;;;;;;5043984;28;890;-71
2022/08/20 08:55:46;;;;;;;;;;;;;;;;;;5043517;28;1295;-71
2022/08/20 08:58:12;;;;;;;;;;;;;;;;;;5026141;28;1213;-72
2022/08/20 09:00:37;;;;;;;;;;;;;;;;;;5043720;28;1897;-72
2022/08/20 09:03:05;;;;;;;;;;;;;;;;;;5044010;28;795;-72
2022/08/20 09:05:39;;;;;;;;;;;;;;;;;;5043505;28;1180;-72
2022/08/20 09:08:07;;;;;;;;;;;;;;;;;;5043810;28;862;-72
2022/08/20 09:10:33;;;;;;;;;;;;;;;;;;5043677;28;922;-72
2022/08/20 09:13:00;;;;;;;;;;;;;;;;;;5043684;28;881;-72
2022/08/20 09:15:25;;;;;;;;;;;;;;;;;;5043327;28;1275;-72
2022/08/20 09:17:50;;;;;;;;;;;;;;;;;;5043817;28;941;-72
2022/08/20 09:20:17;;;;;;;;;;;;;;;;;;5043567;28;1906;-72
2022/08/20 09:22:42;;;;;;;;;;;;;;;;;;5043533;28;865;-72
2022/08/20 09:25:07;;;;;;;;;;;;;;;;;;5043442;28;1280;-72
2022/08/20 09:27:32;;;;;;;;;;;;;;;;;;5043566;28;862;-72
2022/08/20 09:29:58;;;;;;;;;;;;;;;;;;5043496;28;838;-72
2022/08/20 09:32:23;;;;;;;;;;;;;;;;;;5043017;28;795;-72
2022/08/20 09:34:57;;;;;;;;;;;;;;;;;;5043049;28;1267;-73
2022/08/20 09:37:23;;;;;;;;;;;;;;;;;;5043393;28;877;-73
2022/08/20 09:39:48;;;;;;;;;;;;;;;;;;5043099;28;838;-73
2022/08/20 09:42:18;;;;;;;;;;;;;;;;;;5043326;28;1890;-73
2022/08/20 09:44:43;;;;;;;;;;;;;;;;;;5042826;28;1267;-73
2022/08/20 09:47:09;;;;;;;;;;;;;;;;;;5043177;28;898;-73
2022/08/20 09:49:36;;;;;;;;;;;;;;;;;;5043107;28;784;-73
2022/08/20 09:52:02;;;;;;;;;;;;;;;;;;5042526;28;1269;-73
2022/08/20 09:54:29;;;;;;;;;;;;;;;;;;5041851;28;1271;-73
2022/08/20 09:56:56;;;;;;;;;;;;;;;;;;5043054;28;894;-73
2022/08/20 09:59:21;;;;;;;;;;;;;;;;;;5042966;28;823;-74
2022/08/20 10:01:46;;;;;;;;;;;;;;;;;;5042175;28;1947;-74
2022/08/20 10:04:11;;;;;;;;;;;;;;;;;;5042912;28;851;-74
2022/08/20 10:06:40;;;;;;;;;;;;;;;;;;5042518;28;1207;-74
2022/08/20 10:09:05;;;;;;;;;;;;;;;;;;5042891;28;827;-74
2022/08/20 10:11:31;;;;;;;;;;;;;;;;;;5042711;28;862;-73
2022/08/20 10:13:56;;;;;;;;;;;;;;;;;;5042934;28;863;-74
2022/08/20 10:16:21;;;;;;;;;;;;;;;;;;5042350;28;1263;-73
2022/08/20 10:18:48;;;;;;;;;;;;;;;;;;5042853;28;886;-73
2022/08/20 10:21:13;;;;;;;;;;;;;;;;;;5042561;28;1897;-73
2022/08/20 10:23:38;;;;;;;;;;;;;;;;;;5042645;28;1064;-73
2022/08/20 10:26:03;;;;;;;;;;;;;;;;;;5042193;28;1219;-73
2022/08/20 10:28:29;;;;;;;;;;;;;;;;;;5042678;28;831;-73
2022/08/20 10:30:54;;;;;;;;;;;;;;;;;;5042610;28;795;-73
2022/08/20 10:33:19;;;;;;;;;;;;;;;;;;5042627;28;1029;-73
2022/08/20 10:35:44;;;;;;;;;;;;;;;;;;5041903;28;1294;-73
2022/08/20 10:38:10;;;;;;;;;;;;;;;;;;5060225;28;1088;-72
2022/08/20 10:40:35;;;;;;;;;;;;;;;;;;5062351;28;1957;-73
2022/08/20 10:43:00;;;;;;;;;;;;;;;;;;5062342;28;882;-72
2022/08/20 10:45:26;;;;;;;;;;;;;;;;;;5062073;28;1180;-72
2022/08/20 10:47:51;;;;;;;;;;;;;;;;;;5062002;28;862;-72
2022/08/20 10:50:18;;;;;;;;;;;;;;;;;;5062186;28;999;-72
2022/08/20 10:52:44;;;;;;;;;;;;;;;;;;5062072;28;850;-72
2022/08/20 10:55:09;;;;;;;;;;;;;;;;;;5062061;28;1247;-72
2022/08/20 10:57:36;;;;;;;;;;;;;;;;;;5061947;28;945;-72
2022/08/20 11:00:02;;;;;;;;;;;;;;;;;;5044478;28;1302;-72
2022/08/20 11:02:28;;;;;;;;;;;;;;;;;;5061836;28;1906;-72
2022/08/20 11:04:53;;;;;;;;;;;;;;;;;;5061695;28;1495;-72
2022/08/20 11:07:22;;;;;;;;;;;;;;;;;;5061843;28;893;-72
2022/08/20 11:09:48;;;;;;;;;;;;;;;;;;5062000;28;865;-72
2022/08/20 11:12:14;;;;;;;;;;;;;;;;;;5061912;28;841;-71
2022/08/20 11:14:40;;;;;;;;;;;;;;;;;;5061686;28;1263;-72
2022/08/20 11:17:05;;;;;;;;;;;;;;;;;;5061870;28;787;-72
2022/08/20 11:19:31;;;;;;;;;;;;;;;;;;5061645;28;1161;-72
2022/08/20 11:21:56;;;;;;;;;;;;;;;;;;5043838;28;1898;-72
2022/08/20 11:24:21;;;;;;;;;;;;;;;;;;5043518;28;1467;-72
2022/08/20 11:26:47;;;;;;;;;;;;;;;;;;5061458;28;834;-72
2022/08/20 11:29:12;;;;;;;;;;;;;;;;;;5061602;28;1051;-72
2022/08/20 11:31:37;;;;;;;;;;;;;;;;;;5061766;28;736;-72
2022/08/20 11:34:03;;;;;;;;;;;;;;;;;;5043628;28;1309;-71
2022/08/20 11:36:28;;;;;;;;;;;;;;;;;;5061074;28;1294;-71
2022/08/20 11:38:53;;;;;;;;;;;;;;;;;;5061379;28;878;-71
2022/08/20 11:41:18;;;;;;;;;;;;;;;;;;5061356;28;1902;-71
2022/08/20 11:43:45;;;;;;;;;;;;;;;;;;5061683;28;1109;-71
2022/08/20 11:46:10;;;;;;;;;;;;;;;;;;5061164;28;1204;-71
2022/08/20 11:48:35;;;;;;;;;;;;;;;;;;5061358;28;898;-71
2022/08/20 11:51:00;;;;;;;;;;;;;;;;;;5061154;28;870;-71
2022/08/20 11:53:26;;;;;;;;;;;;;;;;;;5061388;28;861;-71
2022/08/20 11:55:51;;;;;;;;;;;;;;;;;;5060974;28;1258;-71
2022/08/20 11:58:17;;;;;;;;;;;;;;;;;;5061288;28;811;-72
2022/08/20 12:00:42;;;;;;;;;;;;;;;;;;5061052;28;1910;-72
2022/08/20 12:03:08;;;;;;;;;;;;;;;;;;5043394;28;1272;-72
2022/08/20 12:05:33;;;;;;;;;;;;;;;;;;5060670;28;1270;-72
2022/08/20 12:08:01;;;;;;;;;;;;;;;;;;5061212;28;830;-72
2022/08/20 12:10:27;;;;;;;;;;;;;;;;;;5061272;28;1194;-72
2022/08/20 12:12:52;;;;;;;;;;;;;;;;;;5061152;28;910;-72
2022/08/20 12:15:17;;;;;;;;;;;;;;;;;;5060919;28;1188;-72
2022/08/20 12:17:43;;;;;;;;;;;;;;;;;;5043024;28;1439;-72
2022/08/20 12:20:09;;;;;;;;;;;;;;;;;;5060899;28;831;-72
2022/08/20 12:22:35;;;;;;;;;;;;;;;;;;5060850;28;1960;-72
2022/08/20 12:25:00;;;;;;;;;;;;;;;;;;5061462;28;1243;-71
2022/08/20 12:27:27;;;;;;;;;;;;;;;;;;5064378;28;902;-71
2022/08/20 12:29:53;;;;;;;;;;;;;;;;;;5064402;28;902;-71
2022/08/20 12:32:23;;;;;;;;;;;;;;;;;;5064330;28;823;-71
2022/08/20 12:34:48;;;;;;;;;;;;;;;;;;5064049;28;1270;-71
2022/08/20 12:37:15;;;;;;;;;;;;;;;;;;5064116;28;839;-71
2022/08/20 12:39:40;;;;;;;;;;;;;;;;;;5064305;28;933;-72
2022/08/20 12:42:06;;;;;;;;;;;;;;;;;;5064169;28;1893;-72
2022/08/20 12:44:31;;;;;;;;;;;;;;;;;;5063853;28;1255;-72
2022/08/20 12:47:06;;;;;;;;;;;;;;;;;;5064152;28;799;-71
2022/08/20 12:49:32;;;;;;;;;;;;;;;;;;5064048;28;885;-71
2022/08/20 12:51:57;;;;;;;;;;;;;;;;;;5046201;28;1318;-71
2022/08/20 12:54:22;;;;;;;;;;;;;;;;;;5063764;28;1213;-71
2022/08/20 12:56:47;;;;;;;;;;;;;;;;;;5064022;28;798;-72
2022/08/20 12:59:12;;;;;;;;;;;;;;;;;;5063838;28;877;-71
2022/08/20 13:01:38;;;;;;;;;;;;;;;;;;5063924;28;1886;-72
2022/08/20 13:04:03;;;;;;;;;;;;;;;;;;5045883;28;1281;-71
2022/08/20 13:06:28;;;;;;;;;;;;;;;;;;5063693;28;1176;-71
2022/08/20 13:08:53;;;;;;;;;;;;;;;;;;5063696;28;997;-72
2022/08/20 13:11:18;;;;;;;;;;;;;;;;;;5063814;28;902;-72
2022/08/20 13:13:46;;;;;;;;;;;;;;;;;;5063743;28;885;-72
2022/08/20 13:16:11;;;;;;;;;;;;;;;;;;5063341;28;1188;-72
2022/08/20 13:18:36;;;;;;;;;;;;;;;;;;5063577;28;811;-72
2022/08/20 13:21:01;;;;;;;;;;;;;;;;;;5063525;28;1889;-72
2022/08/20 13:23:27;;;;;;;;;;;;;;;;;;5045644;28;1398;-72
2022/08/20 13:25:52;;;;;;;;;;;;;;;;;;5063238;28;1258;-72
2022/08/20 13:28:17;;;;;;;;;;;;;;;;;;5063659;28;919;-72
2022/08/20 13:30:42;;;;;;;;;;;;;;;;;;5045486;28;1311;-71
2022/08/20 13:33:07;;;;;;;;;;;;;;;;;;5063498;28;882;-71
2022/08/20 13:35:33;;;;;;;;;;;;;;;;;;5063039;28;1168;-71
2022/08/20 13:37:58;;;;;;;;;;;;;;;;;;5062305;28;890;-71
2022/08/20 13:40:24;;;;;;;;;;;;;;;;;;5045155;28;1981;-71
2022/08/20 13:42:49;;;;;;;;;;;;;;;;;;5063419;28;858;-71
2022/08/20 13:45:15;;;;;;;;;;;;;;;;;;5062870;28;1266;-71
2022/08/20 13:47:40;;;;;;;;;;;;;;;;;;5063199;28;814;-71
2022/08/20 13:50:13;;;;;;;;;;;;;;;;;;5063080;28;815;-72
2022/08/20 13:52:38;;;;;;;;;;;;;;;;;;5063238;28;910;-71
2022/08/20 13:55:05;;;;;;;;;;;;;;;;;;5062841;28;1266;-72
2022/08/20 13:57:30;;;;;;;;;;;;;;;;;;5063050;28;811;-71
2022/08/20 13:59:56;;;;;;;;;;;;;;;;;;5063170;28;791;-72
2022/08/20 14:02:22;;;;;;;;;;;;;;;;;;5044770;28;1894;-72
2022/08/20 14:04:47;;;;;;;;;;;;;;;;;;5062698;28;1176;-72
2022/08/20 14:07:26;;;;;;;;;;;;;;;;;;5063004;28;810;-71
2022/08/20 14:09:54;;;;;;;;;;;;;;;;;;5062885;28;854;-72
2022/08/20 14:12:21;;;;;;;;;;;;;;;;;;5062619;28;1795;-72
2022/08/20 14:14:47;;;;;;;;;;;;;;;;;;5062760;28;1289;-72
2022/08/20 14:17:12;;;;;;;;;;;;;;;;;;5062834;28;830;-72
2022/08/20 14:19:37;;;;;;;;;;;;;;;;;;5062641;28;906;-72
2022/08/20 14:22:02;;;;;;;;;;;;;;;;;;5062377;28;1969;-72
2022/08/20 14:24:28;;;;;;;;;;;;;;;;;;5062389;28;1172;-72
2022/08/20 14:26:53;;;;;;;;;;;;;;;;;;5062437;28;846;-72
2022/08/20 14:29:21;;;;;;;;;;;;;;;;;;5062293;28;791;-73
2022/08/20 14:31:46;;;;;;;;;;;;;;;;;;5062274;28;898;-73
2022/08/20 14:34:11;;;;;;;;;;;;;;;;;;5062168;28;752;-72
2022/08/20 14:36:36;;;;;;;;;;;;;;;;;;5061892;28;1239;-72
2022/08/20 14:39:02;;;;;;;;;;;;;;;;;;5062049;28;993;-72
2022/08/20 14:41:27;;;;;;;;;;;;;;;;;;5062078;28;1967;-72
2022/08/20 14:43:52;;;;;;;;;;;;;;;;;;5062073;28;1005;-70
2022/08/20 14:46:17;;;;;;;;;;;;;;;;;;5061913;28;1286;-72
2022/08/20 14:48:42;;;;;;;;;;;;;;;;;;5061930;28;866;-72
2022/08/20 14:51:09;;;;;;;;;;;;;;;;;;5062098;28;810;-72
2022/08/20 14:53:34;;;;;;;;;;;;;;;;;;5062111;28;924;-72
2022/08/20 14:55:59;;;;;;;;;;;;;;;;;;5061784;28;1263;-72
2022/08/20 14:58:24;;;;;;;;;;;;;;;;;;5061864;28;870;-73
2022/08/20 15:00:50;;;;;;;;;;;;;;;;;;5061885;28;1952;-73
2022/08/20 15:03:15;;;;;;;;;;;;;;;;;;5061977;28;866;-74
2022/08/20 15:05:40;;;;;;;;;;;;;;;;;;5061363;28;1282;-72
2022/08/20 15:08:06;;;;;;;;;;;;;;;;;;5044039;28;1299;-72
2022/08/20 15:10:31;;;;;;;;;;;;;;;;;;5061676;28;853;-72
2022/08/20 15:12:57;;;;;;;;;;;;;;;;;;5061931;28;830;-71
2022/08/20 15:15:23;;;;;;;;;;;;;;;;;;5061452;28;1184;-72
2022/08/20 15:17:49;;;;;;;;;;;;;;;;;;5061992;28;851;-72
2022/08/20 15:20:16;;;;;;;;;;;;;;;;;;5061452;28;815;-73
2022/08/20 15:22:42;;;;;;;;;;;;;;;;;;5061701;28;1898;-73
2022/08/20 15:25:17;;;;;;;;;;;;;;;;;;5061341;28;1190;-72
2022/08/20 15:27:42;;;;;;;;;;;;;;;;;;5061610;28;818;-72
2022/08/20 15:30:09;;;;;;;;;;;;;;;;;;5061364;28;1001;-73
2022/08/20 15:32:34;;;;;;;;;;;;;;;;;;5061846;28;984;-73
2022/08/20 15:35:00;;;;;;;;;;;;;;;;;;5061394;28;1289;-73
2022/08/20 15:37:25;;;;;;;;;;;;;;;;;;5061379;28;886;-73
2022/08/20 15:39:50;;;;;;;;;;;;;;;;;;5061423;28;885;-71
2022/08/20 15:42:16;;;;;;;;;;;;;;;;;;5060830;28;1973;-73
2022/08/20 15:44:42;;;;;;;;;;;;;;;;;;5060944;28;1144;-73
2022/08/20 15:47:14;;;;;;;;;;;;;;;;;;5061179;28;783;-73
2022/08/20 15:49:39;;;;;;;;;;;;;;;;;;5061299;28;928;-73
2022/08/20 15:52:04;;;;;;;;;;;;;;;;;;5061062;28;980;-73
2022/08/20 15:54:29;;;;;;;;;;;;;;;;;;5061007;28;1196;-72
2022/08/20 15:56:54;;;;;;;;;;;;;;;;;;5060999;28;807;-73
2022/08/20 15:59:35;;;;;;;;;;;;;;;;;;5060242;28;933;-73
2022/08/20 16:02:06;;;;;;;;;;;;;;;;;;5060815;28;1959;-74
2022/08/20 16:04:40;;;;;;;;;;;;;;;;;;5060848;28;1294;-73
2022/08/20 16:07:08;;;;;;;;;;;;;;;;;;5060950;28;883;-73
2022/08/20 16:09:36;;;;;;;;;;;;;;;;;;5060962;28;791;-73
2022/08/20 16:12:04;;;;;;;;;;;;;;;;;;5060926;28;835;-73
2022/08/20 16:14:33;;;;;;;;;;;;;;;;;;5060640;28;1203;-72
2022/08/20 16:17:05;;;;;;;;;;;;;;;;;;5061034;28;858;-72
2022/08/20 16:19:59;;;;;;;;;;;;;;;;;;5060876;28;846;-72
2022/08/20 16:22:26;;;;;;;;;;;;;;;;;;5038892;28;1902;-72
2022/08/20 16:24:51;;;;;;;;;;;;;;;;;;5060364;28;1188;-72
2022/08/20 16:27:19;;;;;;;;;;;;;;;;;;5062758;28;966;-72
2022/08/20 16:29:52;;;;;;;;;;;;;;;;;;5060930;28;886;-73
2022/08/20 16:32:20;;;;;;;;;;;;;;;;;;5060733;28;818;-72
2022/08/20 16:34:45;;;;;;;;;;;;;;;;;;5060285;28;1180;-72
2022/08/20 16:37:20;;;;;;;;;;;;;;;;;;5042762;28;1236;-72
2022/08/20 16:40:04;;;;;;;;;;;;;;;;;;5060436;28;952;-73
2022/08/20 16:42:35;;;;;;;;;;;;;;;;;;5060755;28;1959;-73
2022/08/20 16:45:01;;;;;;;;;;;;;;;;;;5060246;28;1326;-73
2022/08/20 16:47:28;;;;;;;;;;;;;;;;;;5060572;28;969;-72
2022/08/20 16:49:58;;;;;;;;;;;;;;;;;;5060493;28;901;-72
2022/08/20 16:52:23;;;;;;;;;;;;;;;;;;5060490;28;1708;-73
2022/08/20 16:54:48;;;;;;;;;;;;;;;;;;5059944;28;1195;-73
2022/08/20 16:57:13;;;;;;;;;;;;;;;;;;5060432;28;866;-73
2022/08/20 16:59:57;;;;;;;;;;;;;;;;;;5060332;28;969;-72
2022/08/20 17:02:23;;;;;;;;;;;;;;;;;;5060296;28;1949;-73
2022/08/20 17:04:49;;;;;;;;;;;;;;;;;;5060149;28;1196;-72
2022/08/20 17:07:23;;;;;;;;;;;;;;;;;;5060196;28;1588;-72
2022/08/20 17:09:48;;;;;;;;;;;;;;;;;;5060261;28;831;-72
2022/08/20 17:12:15;;;;;;;;;;;;;;;;;;5062648;28;893;-72
2022/08/20 17:14:51;;;;;;;;;;;;;;;;;;5063403;28;1308;-72
2022/08/20 17:17:21;;;;;;;;;;;;;;;;;;5063249;28;914;-72
2022/08/20 17:19:53;;;;;;;;;;;;;;;;;;5063535;28;807;-71